Time;durP1;ratioP1;P1;durP2;ratioP2;P2;SDS_P1;SDS_P2;PMS_P1;PMS_P2;Temp;Humidity;BMP_temperature;BMP_pressure;BME280_temperature;BME280_humidity;BME280_pressure;Samples;Min_cycle;Max_cycle;Signal;HPM_P1;HPM_P2
2024/04/16 00:01:14;;;;;;;3.73;3.07;;;;;;;;;;11218782;25;20029;-65
2024/04/16 00:06:15;;;;;;;5.07;2.42;;;;;;;;;;11259741;25;20294;-65
2024/04/16 00:11:18;;;;;;;4.60;2.88;;;;;;;;;;11261190;25;20037;-64
2024/04/16 00:16:18;;;;;;;3.57;2.30;;;;;;;;;;11258286;25;20044;-65
2024/04/16 00:21:19;;;;;;;3.17;2.55;;;;;;;;;;11226984;25;20041;-64
2024/04/16 00:26:22;;;;;;;3.53;2.72;;;;;;;;;;11271131;25;20041;-65
2024/04/16 00:31:22;;;;;;;3.45;2.78;;;;;;;;;;11267409;25;20037;-65
2024/04/16 00:36:22;;;;;;;6.25;3.00;;;;;;;;;;11270635;25;20041;-64
2024/04/16 00:41:25;;;;;;;7.78;2.78;;;;;;;;;;11268467;25;20037;-64
2024/04/16 00:46:26;;;;;;;6.57;2.65;;;;;;;;;;11258466;25;20479;-65
2024/04/16 00:51:26;;;;;;;6.72;2.88;;;;;;;;;;11258503;25;20030;-65
2024/04/16 00:56:30;;;;;;;3.67;2.85;;;;;;;;;;11257093;25;20049;-63
2024/04/16 01:01:30;;;;;;;4.50;3.00;;;;;;;;;;11267511;25;20033;-65
2024/04/16 01:06:30;;;;;;;3.13;2.38;;;;;;;;;;11258869;25;20029;-64
2024/04/16 01:11:33;;;;;;;5.63;2.88;;;;;;;;;;11264452;25;20364;-65
2024/04/16 01:16:34;;;;;;;4.03;2.70;;;;;;;;;;11256436;25;20037;-64
2024/04/16 01:21:34;;;;;;;4.90;3.03;;;;;;;;;;11265439;25;20024;-65
2024/04/16 01:26:37;;;;;;;4.00;2.90;;;;;;;;;;11269111;25;20038;-65
2024/04/16 01:31:37;;;;;;;6.13;3.85;;;;;;;;;;11266939;25;20379;-65
2024/04/16 01:36:37;;;;;;;6.05;3.00;;;;;;;;;;11264894;25;20025;-64
2024/04/16 01:41:40;;;;;;;5.95;3.28;;;;;;;;;;11265614;25;20033;-64
2024/04/16 01:46:41;;;;;;;6.53;3.10;;;;;;;;;;11262984;25;20025;-64
2024/04/16 01:51:41;;;;;;;6.75;3.35;;;;;;;;;;11262864;25;20021;-63
2024/04/16 01:56:45;;;;;;;6.32;2.63;;;;;;;;;;11261953;25;20028;-65
2024/04/16 02:01:46;;;;;;;5.40;3.20;;;;;;;;;;11249870;25;20029;-65
2024/04/16 02:06:46;;;;;;;3.35;2.53;;;;;;;;;;11266440;25;20037;-65
2024/04/16 02:11:49;;;;;;;3.40;2.90;;;;;;;;;;11263703;25;20036;-65
2024/04/16 02:16:49;;;;;;;3.85;3.20;;;;;;;;;;11262076;25;20041;-65
2024/04/16 02:21:49;;;;;;;4.93;2.97;;;;;;;;;;11266387;25;20033;-65
2024/04/16 02:26:52;;;;;;;5.25;3.95;;;;;;;;;;11254560;25;20041;-64
2024/04/16 02:31:53;;;;;;;7.22;2.88;;;;;;;;;;11254062;25;20490;-65
2024/04/16 02:36:53;;;;;;;6.75;3.20;;;;;;;;;;11253529;25;20041;-65
2024/04/16 02:41:56;;;;;;;6.32;3.85;;;;;;;;;;11262940;25;20029;-65
2024/04/16 02:46:56;;;;;;;7.35;3.70;;;;;;;;;;11257167;25;20029;-65
2024/04/16 02:51:57;;;;;;;6.72;3.38;;;;;;;;;;11259887;25;20028;-65
2024/04/16 02:56:59;;;;;;;6.65;3.03;;;;;;;;;;11263088;25;20033;-64
2024/04/16 03:02:00;;;;;;;4.45;3.60;;;;;;;;;;11263753;25;20034;-65
2024/04/16 03:07:00;;;;;;;5.43;2.95;;;;;;;;;;11264665;25;20478;-65
2024/04/16 03:12:03;;;;;;;6.43;3.30;;;;;;;;;;11265104;25;20033;-65
2024/04/16 03:17:03;;;;;;;4.93;3.70;;;;;;;;;;11262875;25;20025;-65
2024/04/16 03:22:04;;;;;;;3.20;2.90;;;;;;;;;;11262210;25;20372;-65
2024/04/16 03:27:07;;;;;;;7.45;3.40;;;;;;;;;;11261158;25;20025;-65
2024/04/16 03:32:07;;;;;;;4.28;2.90;;;;;;;;;;11252866;25;20025;-65
2024/04/16 03:37:08;;;;;;;3.78;3.08;;;;;;;;;;11265361;25;20029;-65
2024/04/16 03:42:11;;;;;;;9.43;2.95;;;;;;;;;;11255826;25;20383;-65
2024/04/16 03:47:11;;;;;;;3.40;3.10;;;;;;;;;;11262701;25;20033;-65
2024/04/16 03:52:12;;;;;;;9.38;3.70;;;;;;;;;;11259954;25;20491;-65
2024/04/16 03:57:15;;;;;;;6.10;3.25;;;;;;;;;;11268101;25;20032;-65
2024/04/16 04:02:20;;;;;;;8.13;4.10;;;;;;;;;;11260331;25;20041;-65
2024/04/16 04:07:20;;;;;;;7.20;3.35;;;;;;;;;;11257050;25;20029;-65
2024/04/16 04:12:23;;;;;;;3.97;3.05;;;;;;;;;;11279559;25;20036;-65
2024/04/16 04:17:23;;;;;;;9.68;3.60;;;;;;;;;;11289962;25;20029;-63
2024/04/16 04:22:24;;;;;;;4.85;3.58;;;;;;;;;;11268552;25;20041;-64
2024/04/16 04:27:28;;;;;;;6.50;3.22;;;;;;;;;;11264117;25;20012;-65
2024/04/16 04:32:30;;;;;;;4.97;3.53;;;;;;;;;;11270962;25;20025;-65
2024/04/16 04:37:30;;;;;;;3.83;3.03;;;;;;;;;;11268908;25;20036;-64
2024/04/16 04:42:33;;;;;;;7.22;3.42;;;;;;;;;;11265277;25;20033;-64
2024/04/16 04:47:33;;;;;;;4.28;3.35;;;;;;;;;;11253915;25;20004;-66
2024/04/16 04:52:34;;;;;;;11.35;3.72;;;;;;;;;;11258773;25;20016;-65
2024/04/16 04:57:38;;;;;;;3.83;2.78;;;;;;;;;;11237055;25;19997;-64
2024/04/16 05:02:38;;;;;;;;;;;;;;;;;;11280654;25;20022;-64
2024/04/16 05:07:39;;;;;;;9.77;3.50;;;;;;;;;;11264518;25;19962;-64
2024/04/16 05:12:42;;;;;;;8.93;3.95;;;;;;;;;;11268790;25;20554;-64
2024/04/16 05:17:42;;;;;;;8.10;3.58;;;;;;;;;;11256486;25;20103;-64
2024/04/16 05:22:43;;;;;;;7.22;3.53;;;;;;;;;;11257230;25;20557;-64
2024/04/16 05:27:47;;;;;;;4.60;3.35;;;;;;;;;;11263262;25;20036;-65
2024/04/16 05:32:47;;;;;;;5.73;4.17;;;;;;;;;;11267052;25;20744;-65
2024/04/16 05:37:48;;;;;;;11.43;3.50;;;;;;;;;;11265136;25;20296;-65
2024/04/16 05:42:51;;;;;;;6.70;3.33;;;;;;;;;;11237029;25;20037;-65
2024/04/16 05:47:51;;;;;;;9.07;3.95;;;;;;;;;;11266790;25;20036;-65
2024/04/16 05:52:52;;;;;;;6.18;3.20;;;;;;;;;;11269613;25;20041;-65
2024/04/16 05:57:54;;;;;;;10.93;4.18;;;;;;;;;;11265162;25;20028;-65
2024/04/16 06:02:55;;;;;;;11.00;4.05;;;;;;;;;;11266513;25;20487;-65
2024/04/16 06:07:56;;;;;;;7.40;3.63;;;;;;;;;;11270182;25;20376;-65
2024/04/16 06:13:00;;;;;;;9.45;4.15;;;;;;;;;;11267120;25;20025;-65
2024/04/16 06:18:01;;;;;;;7.85;3.78;;;;;;;;;;11263768;25;20025;-65
2024/04/16 06:23:01;;;;;;;4.35;3.20;;;;;;;;;;11259423;25;20029;-65
2024/04/16 06:28:04;;;;;;;5.88;3.25;;;;;;;;;;11266508;25;20033;-65
2024/04/16 06:33:05;;;;;;;4.57;3.22;;;;;;;;;;11258484;25;20029;-64
2024/04/16 06:38:05;;;;;;;9.45;3.70;;;;;;;;;;11267129;25;20350;-65
2024/04/16 06:43:08;;;;;;;9.07;3.80;;;;;;;;;;11251659;25;19997;-66
2024/04/16 06:48:09;;;;;;;7.03;4.03;;;;;;;;;;11257120;25;20014;-65
2024/04/16 06:53:10;;;;;;;13.00;5.05;;;;;;;;;;11258731;25;20376;-66
2024/04/16 06:58:13;;;;;;;8.80;3.58;;;;;;;;;;11254527;25;20458;-67
2024/04/16 07:03:15;;;;;;;7.85;3.75;;;;;;;;;;11259747;25;19993;-65
2024/04/16 07:08:16;;;;;;;7.53;3.50;;;;;;;;;;11248604;25;20012;-66
2024/04/16 07:13:19;;;;;;;11.35;4.18;;;;;;;;;;11256786;25;20037;-65
2024/04/16 07:18:19;;;;;;;7.15;3.88;;;;;;;;;;11253613;25;20433;-65
2024/04/16 07:23:20;;;;;;;7.60;4.95;;;;;;;;;;11261332;25;20025;-65
2024/04/16 07:28:23;;;;;;;7.82;4.65;;;;;;;;;;11252880;25;20029;-66
2024/04/16 07:33:24;;;;;;;10.57;4.45;;;;;;;;;;11260262;25;20041;-65
2024/04/16 07:38:24;;;;;;;14.55;4.55;;;;;;;;;;11256740;25;20033;-65
2024/04/16 07:43:27;;;;;;;10.23;4.22;;;;;;;;;;11260881;25;20042;-65
2024/04/16 07:48:28;;;;;;;9.55;3.97;;;;;;;;;;11254269;25;20034;-65
2024/04/16 07:53:28;;;;;;;10.02;3.92;;;;;;;;;;11259974;25;20042;-65
2024/04/16 07:58:31;;;;;;;6.50;3.85;;;;;;;;;;11261473;25;20037;-65
2024/04/16 08:03:31;;;;;;;10.07;4.13;;;;;;;;;;11258560;25;20034;-65
2024/04/16 08:08:32;;;;;;;7.22;4.45;;;;;;;;;;11262451;25;20029;-66
2024/04/16 08:13:38;;;;;;;11.13;4.05;;;;;;;;;;11262408;25;20030;-65
2024/04/16 08:18:38;;;;;;;13.73;4.70;;;;;;;;;;11259542;25;20042;-66
2024/04/16 08:23:38;;;;;;;8.95;4.40;;;;;;;;;;11261045;25;20695;-66
2024/04/16 08:28:43;;;;;;;14.88;5.63;;;;;;;;;;11228045;25;20057;-66
2024/04/16 08:33:43;;;;;;;11.55;4.00;;;;;;;;;;11259647;25;20026;-66
2024/04/16 08:38:44;;;;;;;10.57;5.00;;;;;;;;;;11261403;25;20026;-64
2024/04/16 08:43:47;;;;;;;9.18;4.40;;;;;;;;;;11262161;25;20033;-65
2024/04/16 08:48:48;;;;;;;15.93;4.38;;;;;;;;;;11264951;25;20024;-65
2024/04/16 08:53:49;;;;;;;11.02;4.68;;;;;;;;;;11267423;25;20033;-64
2024/04/16 08:58:52;;;;;;;12.20;4.65;;;;;;;;;;11265033;25;20479;-66
2024/04/16 09:03:53;;;;;;;10.50;4.83;;;;;;;;;;11270825;25;20025;-65
2024/04/16 09:08:53;;;;;;;11.25;4.38;;;;;;;;;;11266879;25;20029;-65
2024/04/16 09:14:11;;;;;;;10.63;4.43;;;;;;;;;;11256623;25;20029;-67
2024/04/16 09:19:12;;;;;;;11.83;3.93;;;;;;;;;;11265277;25;20126;-64
2024/04/16 09:24:13;;;;;;;11.80;4.22;;;;;;;;;;11265693;25;20030;-66
2024/04/16 09:29:25;;;;;;;9.07;4.43;;;;;;;;;;11265808;25;20028;-64
2024/04/16 09:34:25;;;;;;;7.93;4.70;;;;;;;;;;11262595;25;20029;-64
2024/04/16 09:39:27;;;;;;;9.93;3.55;;;;;;;;;;11267954;25;20036;-64
2024/04/16 09:44:33;;;;;;;13.63;4.45;;;;;;;;;;11255277;25;20029;-64
2024/04/16 09:49:34;;;;;;;15.60;5.03;;;;;;;;;;11255670;25;20037;-64
2024/04/16 09:54:50;;;;;;;11.75;5.03;;;;;;;;;;11264753;25;20380;-64
2024/04/16 09:59:55;;;;;;;9.90;4.15;;;;;;;;;;11260294;25;20028;-64
2024/04/16 10:04:56;;;;;;;14.52;4.55;;;;;;;;;;11264497;25;20044;-65
2024/04/16 10:09:57;;;;;;;11.85;4.47;;;;;;;;;;11262930;25;20486;-63
2024/04/16 10:15:00;;;;;;;10.18;4.15;;;;;;;;;;11263757;25;20032;-63
2024/04/16 10:20:00;;;;;;;9.60;3.73;;;;;;;;;;11264522;25;20024;-64
2024/04/16 10:25:03;;;;;;;11.40;4.55;;;;;;;;;;11267374;25;20020;-64
2024/04/16 10:30:13;;;;;;;10.97;5.37;;;;;;;;;;11257807;25;20370;-64
2024/04/16 10:35:13;;;;;;;13.98;4.82;;;;;;;;;;11263659;25;20025;-64
2024/04/16 10:40:24;;;;;;;10.95;5.20;;;;;;;;;;11262466;25;20417;-64
2024/04/16 10:45:28;;;;;;;14.35;4.70;;;;;;;;;;11192298;26;20029;-64
2024/04/16 10:50:29;;;;;;;13.73;5.03;;;;;;;;;;11184442;26;20037;-64
2024/04/16 10:55:32;;;;;;;13.60;4.80;;;;;;;;;;11188365;25;20026;-64
2024/04/16 11:00:32;;;;;;;;;;;;;;;;;;11188892;26;20021;-64
2024/04/16 11:05:38;;;;;;;13.73;4.32;;;;;;;;;;11188677;26;19930;-63
2024/04/16 11:10:39;;;;;;;17.48;6.13;;;;;;;;;;11188228;26;20034;-65
2024/04/16 11:15:39;;;;;;;20.00;6.28;;;;;;;;;;11186326;26;20038;-64
2024/04/16 11:20:42;;;;;;;18.20;6.43;;;;;;;;;;11187191;26;20034;-64
2024/04/16 11:25:46;;;;;;;14.15;5.53;;;;;;;;;;11187501;25;20030;-64
2024/04/16 11:30:55;;;;;;;12.23;4.60;;;;;;;;;;11187122;26;20039;-64
2024/04/16 11:35:58;;;;;;;11.15;4.93;;;;;;;;;;11191435;26;20026;-63
2024/04/16 11:40:59;;;;;;;16.92;5.30;;;;;;;;;;11199466;26;20037;-63
2024/04/16 11:46:09;;;;;;;22.92;6.68;;;;;;;;;;11257988;25;20033;-64
2024/04/16 11:51:12;;;;;;;13.20;5.70;;;;;;;;;;11279494;25;20024;-64
2024/04/16 11:56:13;;;;;;;27.35;8.23;;;;;;;;;;11245404;25;20041;-64
2024/04/16 12:01:13;;;;;;;16.00;6.00;;;;;;;;;;11257859;25;20029;-63
2024/04/16 12:06:16;;;;;;;21.23;7.95;;;;;;;;;;11258761;25;20495;-63
2024/04/16 12:11:17;;;;;;;25.23;8.57;;;;;;;;;;11260838;25;20387;-64
2024/04/16 12:16:18;;;;;;;24.80;8.73;;;;;;;;;;11260308;25;20033;-64
2024/04/16 12:21:21;;;;;;;24.45;8.20;;;;;;;;;;11263544;25;20032;-63
2024/04/16 12:26:21;;;;;;;27.02;8.30;;;;;;;;;;11266815;25;20033;-64
2024/04/16 12:31:21;;;;;;;26.73;8.00;;;;;;;;;;11263625;25;20649;-64
2024/04/16 12:36:24;;;;;;;37.03;9.43;;;;;;;;;;11265689;25;20027;-64
2024/04/16 12:41:25;;;;;;;25.15;6.97;;;;;;;;;;11253235;25;20001;-64
2024/04/16 12:46:26;;;;;;;30.80;8.60;;;;;;;;;;11253188;25;20012;-64
2024/04/16 12:51:29;;;;;;;29.52;8.02;;;;;;;;;;11256868;25;20037;-63
2024/04/16 12:56:29;;;;;;;29.23;10.07;;;;;;;;;;11260975;25;20033;-63
2024/04/16 13:01:29;;;;;;;19.65;7.53;;;;;;;;;;11262074;25;20025;-64
2024/04/16 13:06:32;;;;;;;22.05;7.32;;;;;;;;;;11261297;25;20028;-63
2024/04/16 13:11:35;;;;;;;35.70;9.85;;;;;;;;;;11263433;25;20072;-64
2024/04/16 13:16:37;;;;;;;32.55;9.00;;;;;;;;;;11267831;25;20028;-64
2024/04/16 13:21:40;;;;;;;31.17;10.93;;;;;;;;;;11265226;25;20025;-62
2024/04/16 13:26:40;;;;;;;30.08;9.18;;;;;;;;;;11255539;25;20025;-63
2024/04/16 13:31:41;;;;;;;35.85;8.98;;;;;;;;;;11257582;25;20037;-63
2024/04/16 13:36:44;;;;;;;36.58;10.52;;;;;;;;;;11258028;25;20029;-63
2024/04/16 13:41:44;;;;;;;29.77;9.45;;;;;;;;;;11264419;25;20025;-63
2024/04/16 13:46:44;;;;;;;29.65;8.63;;;;;;;;;;11264123;25;20037;-63
2024/04/16 13:51:47;;;;;;;37.50;9.93;;;;;;;;;;11263186;25;20037;-63
2024/04/16 13:56:48;;;;;;;30.58;9.68;;;;;;;;;;11265555;25;20479;-62
2024/04/16 14:01:48;;;;;;;32.72;9.75;;;;;;;;;;11262793;25;20025;-63
2024/04/16 14:06:52;;;;;;;34.75;8.55;;;;;;;;;;11268348;25;20039;-63
2024/04/16 14:11:55;;;;;;;32.85;8.45;;;;;;;;;;11262822;25;20025;-63
2024/04/16 14:16:56;;;;;;;22.15;7.28;;;;;;;;;;11236660;25;20038;-63
2024/04/16 14:21:59;;;;;;;29.15;7.30;;;;;;;;;;11263166;25;20030;-63
2024/04/16 14:27:00;;;;;;;33.03;8.98;;;;;;;;;;11269667;25;20435;-63
2024/04/16 14:32:01;;;;;;;28.83;8.27;;;;;;;;;;11264665;25;20025;-61
2024/04/16 14:37:04;;;;;;;33.22;9.23;;;;;;;;;;11264283;25;20507;-62
2024/04/16 14:42:04;;;;;;;;;;;;;;;;;;11257198;25;20037;-61
2024/04/16 14:47:05;;;;;;;25.88;8.00;;;;;;;;;;11265506;25;19975;-63
2024/04/16 14:52:09;;;;;;;31.83;10.95;;;;;;;;;;11265396;25;20037;-63
2024/04/16 14:57:09;;;;;;;26.25;8.32;;;;;;;;;;11265712;25;20033;-63
2024/04/16 15:02:09;;;;;;;32.00;9.40;;;;;;;;;;11253258;25;20025;-61
2024/04/16 15:07:12;;;;;;;31.08;9.30;;;;;;;;;;11271021;25;20033;-61
2024/04/16 15:12:16;;;;;;;32.67;9.50;;;;;;;;;;11261904;25;20034;-61
2024/04/16 15:17:16;;;;;;;22.27;8.25;;;;;;;;;;11264956;25;20025;-61
2024/04/16 15:22:19;;;;;;;29.27;8.00;;;;;;;;;;11249408;25;20005;-61
2024/04/16 15:27:20;;;;;;;28.85;7.68;;;;;;;;;;11257946;25;20486;-62
2024/04/16 15:32:21;;;;;;;24.85;8.10;;;;;;;;;;11267170;25;20032;-63
2024/04/16 15:37:24;;;;;;;23.67;7.03;;;;;;;;;;11256619;25;20021;-63
2024/04/16 15:42:25;;;;;;;35.58;9.90;;;;;;;;;;11264281;25;20024;-63
2024/04/16 15:47:28;;;;;;;29.98;8.18;;;;;;;;;;11262595;25;20024;-63
2024/04/16 15:52:31;;;;;;;27.02;8.48;;;;;;;;;;11272959;25;20037;-62
2024/04/16 15:57:32;;;;;;;28.20;8.15;;;;;;;;;;11285751;25;20033;-64
2024/04/16 16:02:32;;;;;;;27.00;8.85;;;;;;;;;;11273326;25;20382;-62
2024/04/16 16:07:35;;;;;;;26.35;7.82;;;;;;;;;;11275645;25;20038;-63
2024/04/16 16:12:35;;;;;;;26.85;7.88;;;;;;;;;;11271797;25;20028;-62
2024/04/16 16:17:36;;;;;;;32.20;8.60;;;;;;;;;;11279998;25;20359;-63
2024/04/16 16:22:41;;;;;;;31.40;8.77;;;;;;;;;;11279329;25;20023;-64
2024/04/16 16:27:43;;;;;;;31.60;8.68;;;;;;;;;;11268982;25;20007;-63
2024/04/16 16:32:43;;;;;;;28.65;7.35;;;;;;;;;;11298332;25;20450;-64
2024/04/16 16:37:46;;;;;;;32.05;9.32;;;;;;;;;;11266369;25;20375;-63
2024/04/16 16:42:47;;;;;;;24.08;8.80;;;;;;;;;;11293411;25;20375;-63
2024/04/16 16:47:49;;;;;;;31.58;8.63;;;;;;;;;;11300778;25;20028;-63
2024/04/16 16:52:53;;;;;;;32.40;8.45;;;;;;;;;;11294655;25;20471;-63
2024/04/16 16:57:53;;;;;;;33.35;9.50;;;;;;;;;;11289175;25;20026;-62
2024/04/16 17:02:54;;;;;;;31.35;9.30;;;;;;;;;;11275213;25;20037;-61
2024/04/16 17:07:57;;;;;;;31.90;10.85;;;;;;;;;;11267692;25;20029;-64
2024/04/16 17:12:58;;;;;;;26.33;8.53;;;;;;;;;;11266856;25;20025;-63
2024/04/16 17:17:58;;;;;;;27.30;8.52;;;;;;;;;;11268195;25;20028;-63
2024/04/16 17:23:01;;;;;;;27.67;8.63;;;;;;;;;;11267733;25;20025;-63
2024/04/16 17:28:01;;;;;;;28.25;7.45;;;;;;;;;;11269548;25;20032;-63
2024/04/16 17:33:02;;;;;;;37.17;8.63;;;;;;;;;;11266371;25;20623;-63
2024/04/16 17:38:05;;;;;;;33.05;8.20;;;;;;;;;;11259546;25;20011;-63
2024/04/16 17:43:05;;;;;;;25.05;8.35;;;;;;;;;;11264063;25;20483;-63
2024/04/16 17:48:08;;;;;;;28.75;9.15;;;;;;;;;;11263341;25;20029;-63
2024/04/16 17:53:11;;;;;;;26.50;8.70;;;;;;;;;;11256038;25;20001;-63
2024/04/16 17:58:11;;;;;;;31.70;9.83;;;;;;;;;;11257866;25;20001;-63
2024/04/16 18:03:12;;;;;;;39.83;9.30;;;;;;;;;;11256776;25;20576;-64
2024/04/16 18:08:15;;;;;;;30.55;8.95;;;;;;;;;;11276188;25;20380;-62
2024/04/16 18:13:15;;;;;;;32.97;9.53;;;;;;;;;;11265313;25;20383;-63
2024/04/16 18:18:15;;;;;;;35.15;9.63;;;;;;;;;;11263245;25;20037;-63
2024/04/16 18:23:18;;;;;;;38.03;10.35;;;;;;;;;;11280251;25;20455;-62
2024/04/16 18:28:19;;;;;;;34.53;11.48;;;;;;;;;;11277682;25;20033;-64
2024/04/16 18:33:20;;;;;;;29.05;9.88;;;;;;;;;;11269691;25;20021;-64
2024/04/16 18:38:26;;;;;;;28.40;9.82;;;;;;;;;;11263574;25;20037;-63
2024/04/16 18:43:26;;;;;;;27.70;8.80;;;;;;;;;;11262474;25;20025;-63
2024/04/16 18:48:27;;;;;;;34.08;9.02;;;;;;;;;;11261624;25;20025;-63
2024/04/16 18:53:30;;;;;;;24.67;8.43;;;;;;;;;;11262260;25;20033;-63
2024/04/16 18:58:30;;;;;;;26.27;9.18;;;;;;;;;;11270690;25;20040;-63
2024/04/16 19:03:30;;;;;;;25.77;8.20;;;;;;;;;;11261286;25;20037;-63
2024/04/16 19:08:34;;;;;;;29.83;9.65;;;;;;;;;;11264614;25;20045;-63
2024/04/16 19:13:35;;;;;;;27.55;8.68;;;;;;;;;;11261296;25;20041;-62
2024/04/16 19:18:35;;;;;;;34.67;8.27;;;;;;;;;;11261015;25;20025;-62
2024/04/16 19:23:38;;;;;;;23.73;7.35;;;;;;;;;;11264235;25;20026;-62
2024/04/16 19:28:39;;;;;;;33.70;8.70;;;;;;;;;;11260595;25;20033;-63
2024/04/16 19:33:39;;;;;;;37.35;9.43;;;;;;;;;;11261435;25;20486;-62
2024/04/16 19:38:42;;;;;;;29.33;8.05;;;;;;;;;;11260326;25;20026;-62
2024/04/16 19:43:43;;;;;;;22.60;6.77;;;;;;;;;;11260267;25;20001;-62
2024/04/16 19:48:43;;;;;;;21.25;6.07;;;;;;;;;;11262723;25;20139;-62
2024/04/16 19:53:46;;;;;;;30.77;7.40;;;;;;;;;;11259745;25;20040;-63
2024/04/16 19:58:47;;;;;;;17.23;6.47;;;;;;;;;;11256734;25;20025;-63
2024/04/16 20:03:49;;;;;;;14.95;6.35;;;;;;;;;;11270111;25;20489;-63
2024/04/16 20:08:52;;;;;;;21.30;6.25;;;;;;;;;;11301441;25;20037;-63
2024/04/16 20:13:54;;;;;;;;;;;;;;;;;;11257653;25;20029;-63
2024/04/16 20:18:56;;;;;;;18.27;6.00;;;;;;;;;;11257049;25;20258;-63
2024/04/16 20:24:05;;;;;;;15.65;5.70;;;;;;;;;;11253984;25;20037;-63
2024/04/16 20:29:05;;;;;;;14.15;5.00;;;;;;;;;;11254387;25;20033;-63
2024/04/16 20:34:06;;;;;;;14.63;5.30;;;;;;;;;;11256265;25;20373;-63
2024/04/16 20:39:10;;;;;;;14.60;4.95;;;;;;;;;;11261843;25;20037;-63
2024/04/16 20:44:09;;;;;;;;;;;;;;;;;;11265595;25;20495;-63
2024/04/16 20:49:10;;;;;;;19.13;4.50;;;;;;;;;;11267292;25;19952;-63
2024/04/16 20:54:13;;;;;;;12.40;6.22;;;;;;;;;;11266449;25;20050;-63
2024/04/16 20:59:14;;;;;;;16.37;4.63;;;;;;;;;;11270729;25;20038;-63
2024/04/16 21:04:15;;;;;;;11.07;3.88;;;;;;;;;;11266958;25;20026;-63
2024/04/16 21:09:18;;;;;;;12.73;4.20;;;;;;;;;;11268101;25;20033;-63
2024/04/16 21:14:19;;;;;;;15.50;4.90;;;;;;;;;;11264975;25;20025;-62
2024/04/16 21:19:19;;;;;;;9.20;3.85;;;;;;;;;;11265000;25;20036;-62
2024/04/16 21:24:22;;;;;;;8.18;3.70;;;;;;;;;;11266182;25;20037;-62
2024/04/16 21:29:22;;;;;;;12.45;4.55;;;;;;;;;;11267844;25;20033;-63
2024/04/16 21:34:22;;;;;;;11.00;4.35;;;;;;;;;;11265807;25;20037;-63
2024/04/16 21:39:25;;;;;;;13.05;5.05;;;;;;;;;;11264797;25;20029;-62
2024/04/16 21:44:26;;;;;;;11.03;5.13;;;;;;;;;;11265801;25;20366;-63
2024/04/16 21:49:26;;;;;;;15.80;5.50;;;;;;;;;;11263663;25;20029;-62
2024/04/16 21:54:29;;;;;;;17.98;4.90;;;;;;;;;;11254962;25;20025;-63
2024/04/16 21:59:30;;;;;;;13.85;5.55;;;;;;;;;;11256952;25;20042;-62
2024/04/16 22:04:30;;;;;;;15.63;5.78;;;;;;;;;;11265607;25;20037;-63
2024/04/16 22:09:33;;;;;;;12.70;5.28;;;;;;;;;;11258221;25;20025;-63
2024/04/16 22:14:33;;;;;;;15.83;7.00;;;;;;;;;;11261043;25;20036;-63
2024/04/16 22:19:34;;;;;;;22.95;7.55;;;;;;;;;;11260679;25;20036;-62
2024/04/16 22:24:37;;;;;;;25.65;7.60;;;;;;;;;;11262618;25;20045;-62
2024/04/16 22:29:37;;;;;;;20.75;7.05;;;;;;;;;;11262345;25;20483;-63
2024/04/16 22:34:37;;;;;;;19.75;7.00;;;;;;;;;;11262465;25;20373;-63
2024/04/16 22:39:40;;;;;;;28.50;8.40;;;;;;;;;;11263170;25;20038;-63
2024/04/16 22:44:40;;;;;;;25.42;7.50;;;;;;;;;;11255038;25;20055;-64
2024/04/16 22:49:41;;;;;;;18.70;6.90;;;;;;;;;;11262742;25;20045;-63
2024/04/16 22:54:44;;;;;;;25.40;7.75;;;;;;;;;;11265803;25;20021;-63
2024/04/16 22:59:45;;;;;;;21.40;6.90;;;;;;;;;;11262906;25;20378;-63
2024/04/16 23:04:45;;;;;;;30.48;8.95;;;;;;;;;;11260231;25;20033;-63
2024/04/16 23:09:48;;;;;;;26.55;8.02;;;;;;;;;;11262270;25;20038;-62
2024/04/16 23:14:49;;;;;;;11.80;4.80;;;;;;;;;;11262828;25;20376;-63
2024/04/16 23:19:49;;;;;;;18.10;5.30;;;;;;;;;;11262151;25;20029;-63
2024/04/16 23:24:52;;;;;;;18.10;5.53;;;;;;;;;;11261892;25;20037;-62
2024/04/16 23:29:52;;;;;;;22.40;6.40;;;;;;;;;;11262434;25;20485;-62
2024/04/16 23:34:52;;;;;;;19.10;7.63;;;;;;;;;;11262301;25;20463;-62
2024/04/16 23:39:55;;;;;;;19.60;6.15;;;;;;;;;;11263323;25;20045;-63
2024/04/16 23:44:56;;;;;;;18.88;5.80;;;;;;;;;;11261640;25;20366;-63
2024/04/16 23:49:56;;;;;;;22.85;6.75;;;;;;;;;;11260106;25;20076;-64
2024/04/16 23:54:59;;;;;;;28.05;6.63;;;;;;;;;;11263280;25;20029;-64
